createdAt,value
2019-05-29T00:01:35.954Z,11.41
2019-05-29T00:02:35.848Z,11.36
2019-05-29T00:04:28.629Z,11.35
2019-05-29T00:05:28.554Z,11.39
2019-05-29T00:07:21.338Z,11.36
2019-05-29T00:08:21.260Z,11.33
2019-05-29T00:10:14.417Z,11.31
2019-05-29T00:11:14.314Z,11.33
2019-05-29T00:13:06.786Z,11.36
2019-05-29T00:14:21.692Z,11.38
2019-05-29T00:15:59.465Z,11.38
2019-05-29T00:16:59.404Z,11.33
2019-05-29T00:18:52.176Z,11.27
2019-05-29T00:19:52.095Z,11.31
2019-05-29T00:21:44.924Z,11.23
2019-05-29T00:22:44.795Z,11.17
2019-05-29T00:24:37.565Z,11.19
2019-05-29T00:25:37.497Z,11.30
2019-05-29T00:27:30.286Z,11.35
2019-05-29T00:28:30.215Z,11.30
2019-05-29T00:30:22.979Z,11.28
2019-05-29T00:31:22.908Z,11.41
2019-05-29T00:33:15.714Z,11.33
2019-05-29T00:34:15.638Z,11.31
2019-05-29T00:36:08.406Z,11.27
2019-05-29T00:37:08.551Z,11.28
2019-05-29T00:39:01.131Z,11.39
2019-05-29T00:40:01.052Z,11.31
2019-05-29T00:41:53.859Z,11.38
2019-05-29T00:42:53.778Z,11.33
2019-05-29T00:44:46.585Z,11.39
2019-05-29T00:45:46.529Z,11.41
2019-05-29T00:47:39.285Z,11.41
2019-05-29T00:48:39.200Z,11.31
2019-05-29T00:50:32.938Z,11.42
2019-05-29T00:51:31.900Z,11.27
2019-05-29T00:53:24.701Z,11.38
2019-05-29T00:54:24.610Z,11.33
2019-05-29T00:56:17.395Z,11.30
2019-05-29T00:57:17.344Z,11.27
2019-05-29T00:59:11.073Z,11.24
2019-05-29T01:00:11.091Z,11.27
2019-05-29T01:02:02.805Z,11.19
2019-05-29T01:03:02.738Z,11.27
2019-05-29T01:04:55.516Z,11.26
2019-05-29T01:05:55.434Z,11.33
2019-05-29T01:07:48.197Z,11.19
2019-05-29T01:08:48.134Z,11.20
2019-05-29T01:10:40.895Z,11.27
2019-05-29T01:11:40.822Z,11.09
2019-05-29T01:13:33.624Z,11.13
2019-05-29T01:14:48.854Z,11.09
2019-05-29T01:16:26.304Z,11.24
2019-05-29T01:17:26.239Z,11.23
2019-05-29T01:19:20.175Z,11.23
2019-05-29T01:20:20.005Z,11.16
2019-05-29T01:22:12.253Z,11.19
2019-05-29T01:23:12.139Z,11.09
2019-05-29T01:25:04.517Z,11.08
2019-05-29T01:26:04.356Z,10.98
2019-05-29T01:27:57.137Z,10.94
2019-05-29T01:28:57.048Z,10.99
2019-05-29T01:30:51.604Z,10.95
2019-05-29T01:31:49.744Z,10.91
2019-05-29T01:33:42.520Z,10.94
2019-05-29T01:34:42.434Z,10.94
2019-05-29T01:36:35.234Z,10.93
2019-05-29T01:37:35.147Z,10.94
2019-05-29T01:39:27.941Z,10.90
2019-05-29T01:40:29.499Z,10.78
2019-05-29T01:42:21.494Z,10.69
2019-05-29T01:43:21.459Z,10.70
2019-05-29T01:45:13.379Z,10.58
2019-05-29T01:46:13.271Z,10.60
2019-05-29T01:48:06.096Z,10.57
2019-05-29T01:49:06.026Z,10.58
2019-05-29T01:50:58.788Z,10.80
2019-05-29T01:51:58.724Z,10.78
2019-05-29T01:55:28.529Z,10.84
2019-05-29T01:56:28.467Z,10.80
2019-05-29T01:58:21.989Z,10.78
2019-05-29T01:59:21.871Z,10.75
2019-05-29T02:01:13.917Z,10.80
2019-05-29T02:02:13.839Z,10.86
2019-05-29T02:04:06.626Z,10.83
2019-05-29T02:05:06.544Z,10.84
2019-05-29T02:06:59.327Z,10.83
2019-05-29T02:07:59.250Z,10.73
2019-05-29T02:09:52.032Z,10.80
2019-05-29T02:10:51.959Z,10.63
2019-05-29T02:12:44.753Z,10.76
2019-05-29T02:13:44.652Z,10.78
2019-05-29T02:15:37.480Z,10.65
2019-05-29T02:16:37.379Z,10.58
2019-05-29T02:18:30.163Z,10.58
2019-05-29T02:19:30.087Z,10.68
2019-05-29T02:21:24.138Z,10.69
2019-05-29T02:22:23.105Z,10.69
2019-05-29T02:24:15.606Z,10.69
2019-05-29T02:25:17.528Z,10.78
2019-05-29T02:27:08.297Z,10.78
2019-05-29T02:28:08.227Z,10.73
2019-05-29T02:30:01.013Z,10.83
2019-05-29T02:31:00.926Z,10.70
2019-05-29T02:32:53.698Z,10.73
2019-05-29T02:33:53.633Z,10.68
2019-05-29T02:35:46.433Z,10.78
2019-05-29T02:36:46.323Z,10.83
2019-05-29T02:38:39.110Z,10.81
2019-05-29T02:39:39.034Z,10.78
2019-05-29T02:41:31.807Z,10.81
2019-05-29T02:42:31.754Z,10.81
2019-05-29T02:44:25.429Z,10.86
2019-05-29T02:45:45.773Z,10.76
2019-05-29T02:47:17.393Z,10.83
2019-05-29T02:48:17.340Z,10.91
2019-05-29T02:50:10.195Z,10.88
2019-05-29T02:51:12.271Z,10.98
2019-05-29T02:53:02.807Z,10.93
2019-05-29T02:54:02.736Z,10.98
2019-05-29T02:55:55.513Z,10.86
2019-05-29T02:56:55.474Z,10.93
2019-05-29T02:58:48.234Z,10.93
2019-05-29T02:59:48.137Z,10.99
2019-05-29T03:01:40.886Z,10.95
2019-05-29T03:02:40.815Z,10.99
2019-05-29T03:04:33.602Z,10.91
2019-05-29T03:05:33.535Z,10.95
2019-05-29T03:07:26.535Z,10.95
2019-05-29T03:08:27.265Z,10.90
2019-05-29T03:10:19.036Z,10.93
2019-05-29T03:11:18.953Z,10.91
2019-05-29T03:13:11.736Z,10.93
2019-05-29T03:14:11.662Z,10.95
2019-05-29T03:16:12.623Z,11.01
2019-05-29T03:17:04.370Z,10.94
2019-05-29T03:18:57.148Z,10.95
2019-05-29T03:19:57.127Z,10.86
2019-05-29T03:21:49.859Z,10.95
2019-05-29T03:22:49.773Z,10.91
2019-05-29T03:24:42.607Z,10.93
2019-05-29T03:25:42.538Z,10.95
2019-05-29T03:27:35.301Z,10.95
2019-05-29T03:28:35.346Z,11.03
2019-05-29T03:30:31.625Z,11.08
2019-05-29T03:31:34.198Z,11.01
2019-05-29T03:33:20.820Z,10.94
2019-05-29T03:34:20.683Z,11.08
2019-05-29T03:36:13.643Z,11.01
2019-05-29T03:37:13.415Z,11.08
2019-05-29T03:39:06.274Z,11.02
2019-05-29T03:40:06.167Z,11.12
2019-05-29T03:41:58.952Z,10.98
2019-05-29T03:42:58.880Z,10.95
2019-05-29T03:44:51.704Z,11.01
2019-05-29T03:45:51.609Z,11.02
2019-05-29T03:47:44.387Z,11.06
2019-05-29T03:48:44.322Z,10.94
2019-05-29T03:50:38.340Z,10.94
2019-05-29T03:51:38.814Z,10.98
2019-05-29T03:53:31.485Z,11.01
2019-05-29T03:54:30.799Z,11.02
2019-05-29T03:56:22.641Z,11.16
2019-05-29T03:57:22.562Z,11.11
2019-05-29T03:59:15.350Z,11.02
2019-05-29T04:00:15.260Z,11.01
2019-05-29T04:02:08.083Z,11.13
2019-05-29T04:03:08.003Z,11.17
2019-05-29T04:05:00.907Z,11.12
2019-05-29T04:06:00.717Z,11.23
2019-05-29T04:07:53.552Z,11.17
2019-05-29T04:08:53.427Z,11.17
2019-05-29T04:10:46.186Z,11.19
2019-05-29T04:11:46.104Z,11.23
2019-05-29T04:13:39.255Z,11.19
2019-05-29T04:14:38.812Z,11.30
2019-05-29T04:16:54.120Z,11.27
2019-05-29T04:17:32.310Z,11.39
2019-05-29T04:19:24.321Z,11.39
2019-05-29T04:20:24.260Z,11.45
2019-05-29T04:22:17.071Z,11.44
2019-05-29T04:23:16.954Z,11.45
2019-05-29T04:25:09.787Z,11.45
2019-05-29T04:26:09.699Z,11.39
2019-05-29T04:28:02.584Z,11.42
2019-05-29T04:29:02.483Z,11.45
2019-05-29T04:30:55.269Z,11.51
2019-05-29T04:31:55.165Z,11.44
2019-05-29T04:33:47.970Z,11.42
2019-05-29T04:34:47.957Z,11.48
2019-05-29T04:36:40.714Z,11.44
2019-05-29T04:37:40.664Z,11.39
2019-05-29T04:39:34.503Z,11.60
2019-05-29T04:40:35.023Z,11.63
2019-05-29T04:42:26.546Z,11.69
2019-05-29T04:43:26.384Z,11.70
2019-05-29T04:45:19.338Z,11.78
2019-05-29T04:46:19.196Z,11.82
2019-05-29T04:48:12.045Z,11.78
2019-05-29T04:49:11.931Z,11.81
2019-05-29T04:51:04.787Z,11.81
2019-05-29T04:52:04.723Z,11.75
2019-05-29T04:53:57.493Z,11.94
2019-05-29T04:54:57.482Z,11.94
2019-05-29T04:56:50.156Z,11.93
2019-05-29T04:57:50.977Z,12.00
2019-05-29T04:59:42.848Z,12.00
2019-05-29T05:00:58.213Z,12.11
2019-05-29T05:02:35.638Z,12.16
2019-05-29T05:03:35.625Z,12.19
2019-05-29T05:05:29.146Z,12.31
2019-05-29T05:06:29.134Z,12.49
2019-05-29T05:08:21.032Z,12.69
2019-05-29T05:09:20.953Z,12.74
2019-05-29T05:11:13.731Z,13.01
2019-05-29T05:12:13.649Z,13.32
2019-05-29T05:14:06.445Z,14.05
2019-05-29T05:15:06.410Z,14.31
2019-05-29T05:16:59.254Z,14.20
2019-05-29T05:17:59.190Z,14.19
2019-05-29T05:19:51.933Z,14.20
2019-05-29T05:20:51.890Z,14.13
2019-05-29T05:22:44.673Z,14.12
2019-05-29T05:23:44.575Z,14.48
2019-05-29T05:25:38.321Z,14.91
2019-05-29T05:26:38.425Z,15.41
2019-05-29T05:28:30.404Z,17.10
2019-05-29T05:29:30.180Z,17.65
2019-05-29T05:31:22.873Z,18.71
2019-05-29T05:32:22.796Z,19.01
2019-05-29T05:34:15.604Z,19.57
2019-05-29T05:35:15.518Z,19.95
2019-05-29T05:37:08.346Z,19.70
2019-05-29T05:38:08.252Z,19.28
2019-05-29T05:40:01.046Z,19.13
2019-05-29T05:41:01.006Z,19.70
2019-05-29T05:42:53.788Z,19.13
2019-05-29T05:43:53.706Z,19.27
2019-05-29T05:45:46.535Z,18.94
2019-05-29T05:46:46.461Z,18.89
2019-05-29T05:48:39.303Z,19.20
2019-05-29T05:49:39.558Z,19.28
2019-05-29T05:51:33.368Z,19.32
2019-05-29T05:52:33.661Z,19.78
2019-05-29T05:54:24.761Z,20.20
2019-05-29T05:55:24.675Z,20.16
2019-05-29T05:57:17.508Z,19.79
2019-05-29T05:58:17.416Z,19.60
2019-05-29T06:00:10.229Z,18.74
2019-05-29T06:01:10.182Z,18.34
2019-05-29T06:03:03.042Z,18.09
2019-05-29T06:04:02.946Z,17.77
2019-05-29T06:05:55.722Z,17.74
2019-05-29T06:06:55.645Z,17.55
2019-05-29T06:08:48.484Z,17.07
2019-05-29T06:09:48.366Z,16.82
2019-05-29T06:11:42.458Z,16.47
2019-05-29T06:12:41.094Z,16.18
2019-05-29T06:14:34.368Z,16.18
2019-05-29T06:15:34.333Z,16.01
2019-05-29T06:17:26.623Z,16.29
2019-05-29T06:18:26.564Z,16.32
2019-05-29T06:20:19.412Z,16.51
2019-05-29T06:21:19.301Z,17.71
2019-05-29T06:23:12.174Z,19.21
2019-05-29T06:24:12.078Z,20.12
2019-05-29T06:26:04.899Z,21.28
2019-05-29T06:27:04.832Z,22.08
2019-05-29T06:28:57.648Z,22.74
2019-05-29T06:29:57.562Z,23.12
2019-05-29T06:31:50.363Z,23.34
2019-05-29T06:32:50.288Z,23.35
2019-05-29T06:34:43.843Z,22.29
2019-05-29T06:35:43.763Z,22.19
2019-05-29T06:37:35.811Z,23.37
2019-05-29T06:38:35.742Z,23.56
2019-05-29T06:40:28.517Z,24.05
2019-05-29T06:41:28.470Z,24.05
2019-05-29T06:43:21.253Z,23.86
2019-05-29T06:44:21.187Z,23.74
2019-05-29T06:46:13.996Z,24.16
2019-05-29T06:47:13.922Z,24.21
2019-05-29T06:49:06.857Z,23.94
2019-05-29T06:50:06.767Z,23.93
2019-05-29T06:51:59.564Z,24.09
2019-05-29T06:52:59.486Z,24.51
2019-05-29T06:54:52.268Z,24.94
2019-05-29T06:55:54.704Z,25.17
2019-05-29T06:57:45.017Z,24.66
2019-05-29T06:58:44.943Z,24.77
2019-05-29T07:00:39.329Z,24.45
2019-05-29T07:01:37.781Z,24.64
2019-05-29T07:03:30.505Z,24.36
2019-05-29T07:04:30.426Z,24.68
2019-05-29T07:06:23.244Z,25.05
2019-05-29T07:07:23.190Z,25.29
2019-05-29T07:09:16.021Z,25.14
2019-05-29T07:10:15.971Z,25.29
2019-05-29T07:12:08.747Z,25.69
2019-05-29T07:13:08.661Z,26.01
2019-05-29T07:15:01.513Z,25.85
2019-05-29T07:16:01.435Z,24.61
2019-05-29T07:17:54.254Z,24.33
2019-05-29T07:19:24.001Z,23.78
2019-05-29T07:20:47.083Z,23.77
2019-05-29T07:21:47.248Z,23.47
2019-05-29T07:23:41.245Z,24.46
2019-05-29T07:24:41.110Z,24.84
2019-05-29T07:26:32.450Z,25.67
2019-05-29T07:27:32.394Z,24.84
2019-05-29T07:29:25.213Z,24.89
2019-05-29T07:30:25.134Z,24.68
2019-05-29T07:32:17.984Z,24.92
2019-05-29T07:33:18.062Z,25.36
2019-05-29T07:35:10.658Z,26.13
2019-05-29T07:36:10.594Z,25.23
2019-05-29T07:38:03.402Z,23.01
2019-05-29T07:39:03.938Z,21.89
2019-05-29T07:40:56.185Z,20.22
2019-05-29T07:41:56.129Z,20.46
2019-05-29T07:43:48.928Z,22.78
2019-05-29T07:44:48.847Z,23.03
2019-05-29T07:46:42.302Z,22.14
2019-05-29T07:47:42.690Z,22.86
2019-05-29T07:49:39.142Z,23.87
2019-05-29T07:50:34.424Z,24.64
2019-05-29T07:52:27.153Z,25.17
2019-05-29T07:53:27.086Z,24.15
2019-05-29T07:55:23.443Z,22.44
2019-05-29T07:56:23.043Z,21.83
2019-05-29T07:58:12.683Z,20.76
2019-05-29T07:59:12.600Z,20.33
2019-05-29T08:01:13.227Z,19.20
2019-05-29T08:02:05.658Z,19.12
2019-05-29T08:03:58.188Z,18.90
2019-05-29T08:04:58.116Z,20.31
2019-05-29T08:06:54.408Z,22.72
2019-05-29T08:07:50.887Z,23.72
2019-05-29T08:09:43.703Z,24.37
2019-05-29T08:10:43.626Z,24.33
2019-05-29T08:12:41.062Z,24.84
2019-05-29T08:13:36.417Z,23.14
2019-05-29T08:15:29.217Z,21.15
2019-05-29T08:16:29.150Z,20.30
2019-05-29T08:18:22.205Z,19.94
2019-05-29T08:19:22.068Z,19.52
2019-05-29T08:21:14.864Z,19.49
2019-05-29T08:22:14.804Z,19.40
2019-05-29T08:24:07.629Z,19.57
2019-05-29T08:25:07.543Z,19.52
2019-05-29T08:27:00.344Z,18.53
2019-05-29T08:28:00.429Z,18.34
2019-05-29T08:29:53.076Z,18.50
2019-05-29T08:30:56.394Z,18.87
2019-05-29T08:32:46.922Z,18.50
2019-05-29T08:33:46.753Z,18.97
2019-05-29T08:35:38.570Z,21.00
2019-05-29T08:36:38.477Z,21.73
2019-05-29T08:38:31.288Z,23.44
2019-05-29T08:39:36.518Z,24.11
2019-05-29T08:41:24.007Z,24.84
2019-05-29T08:42:24.058Z,25.30
2019-05-29T08:44:16.752Z,24.34
2019-05-29T08:45:16.666Z,24.23
2019-05-29T08:47:10.988Z,25.04
2019-05-29T08:48:09.456Z,25.51
2019-05-29T08:50:17.390Z,25.79
2019-05-29T08:51:02.216Z,26.42
2019-05-29T08:52:54.997Z,26.84
2019-05-29T08:53:54.972Z,27.16
2019-05-29T08:55:49.240Z,27.69
2019-05-29T08:56:48.581Z,27.80
2019-05-29T08:58:42.906Z,27.58
2019-05-29T08:59:42.117Z,27.15
2019-05-29T09:01:34.594Z,26.21
2019-05-29T09:02:34.504Z,26.23
2019-05-29T09:04:27.425Z,25.41
2019-05-29T09:05:27.290Z,24.75
2019-05-29T09:07:20.080Z,23.64
2019-05-29T09:08:20.042Z,22.81
2019-05-29T09:10:12.845Z,22.15
2019-05-29T09:11:12.770Z,21.99
2019-05-29T09:13:05.594Z,22.17
2019-05-29T09:14:05.523Z,21.90
2019-05-29T09:15:58.349Z,23.93
2019-05-29T09:16:58.299Z,24.52
2019-05-29T09:18:51.085Z,24.08
2019-05-29T09:19:51.015Z,24.67
2019-05-29T09:21:43.808Z,25.81
2019-05-29T09:22:43.862Z,26.38
2019-05-29T09:24:36.626Z,26.27
2019-05-29T09:25:36.495Z,26.91
2019-05-29T09:27:29.365Z,27.83
2019-05-29T09:28:29.331Z,28.18
2019-05-29T09:30:22.165Z,27.09
2019-05-29T09:31:22.258Z,26.44
2019-05-29T09:33:16.310Z,25.24
2019-05-29T09:34:15.504Z,24.71
2019-05-29T09:36:07.598Z,23.67
2019-05-29T09:37:07.531Z,22.96
2019-05-29T09:39:00.333Z,22.20
2019-05-29T09:40:00.309Z,21.96
2019-05-29T09:41:53.086Z,21.98
2019-05-29T09:42:53.003Z,22.04
2019-05-29T09:44:45.842Z,21.66
2019-05-29T09:45:45.743Z,21.55
2019-05-29T09:47:38.608Z,21.24
2019-05-29T09:48:49.205Z,21.33
2019-05-29T09:50:48.897Z,22.76
2019-05-29T09:51:31.265Z,23.44
2019-05-29T09:53:24.058Z,24.94
2019-05-29T09:54:24.094Z,25.49
2019-05-29T09:56:17.039Z,26.51
2019-05-29T09:57:16.871Z,26.90
2019-05-29T09:59:09.654Z,27.77
2019-05-29T10:00:09.589Z,28.01
2019-05-29T10:02:07.158Z,27.99
2019-05-29T10:03:03.786Z,28.18
2019-05-29T10:04:56.524Z,25.91
2019-05-29T10:05:55.806Z,24.60
2019-05-29T10:07:47.925Z,24.06
2019-05-29T10:08:47.811Z,24.37
2019-05-29T10:10:40.759Z,24.33
2019-05-29T10:11:40.703Z,25.08
2019-05-29T10:13:33.454Z,26.50
2019-05-29T10:14:33.409Z,27.20
2019-05-29T10:16:26.226Z,27.72
2019-05-29T10:17:26.151Z,27.98
2019-05-29T10:19:18.955Z,28.54
2019-05-29T10:20:19.011Z,28.25
2019-05-29T10:22:11.684Z,27.08
2019-05-29T10:23:11.601Z,27.09
2019-05-29T10:25:05.791Z,26.96
2019-05-29T10:26:05.037Z,27.55
2019-05-29T10:27:57.166Z,26.86
2019-05-29T10:30:50.276Z,24.33
2019-05-29T10:31:02.887Z,26.17
2019-05-29T10:31:51.089Z,23.77
2019-05-29T10:33:44.019Z,22.27
2019-05-29T10:34:42.585Z,21.73
2019-05-29T10:36:35.395Z,20.93
2019-05-29T10:37:35.323Z,20.76
2019-05-29T10:39:28.157Z,20.46
2019-05-29T10:40:28.070Z,20.33
2019-05-29T10:42:21.006Z,21.06
2019-05-29T10:43:33.646Z,21.90
2019-05-29T10:45:13.750Z,22.76
2019-05-29T10:46:13.652Z,23.11
2019-05-29T10:48:06.461Z,23.34
2019-05-29T10:49:06.409Z,23.59
2019-05-29T10:50:59.225Z,23.23
2019-05-29T10:52:13.703Z,22.93
2019-05-29T10:53:55.178Z,21.45
2019-05-29T10:54:52.439Z,20.73
2019-05-29T10:56:44.867Z,20.44
2019-05-29T10:57:44.847Z,20.42
2019-05-29T10:59:37.458Z,21.05
2019-05-29T11:00:38.994Z,21.48
2019-05-29T11:02:30.355Z,21.61
2019-05-29T11:03:30.195Z,21.42
2019-05-29T11:05:23.011Z,21.08
2019-05-29T11:06:22.916Z,20.76
2019-05-29T11:08:15.742Z,20.38
2019-05-29T11:09:15.697Z,20.54
2019-05-29T11:11:08.451Z,20.60
2019-05-29T11:12:08.407Z,20.50
2019-05-29T11:14:01.175Z,20.17
2019-05-29T11:15:01.131Z,20.05
2019-05-29T11:16:55.078Z,20.04
2019-05-29T11:17:55.238Z,19.34
2019-05-29T11:19:47.183Z,19.40
2019-05-29T11:20:47.255Z,19.39
2019-05-29T11:22:39.468Z,19.85
2019-05-29T11:23:39.399Z,20.04
2019-05-29T11:25:32.267Z,20.17
2019-05-29T11:26:32.158Z,20.27
2019-05-29T11:28:24.961Z,20.15
2019-05-29T11:29:24.862Z,20.01
2019-05-29T11:31:17.729Z,20.31
2019-05-29T11:32:17.727Z,20.33
2019-05-29T11:34:10.432Z,20.34
2019-05-29T11:35:10.376Z,20.22
2019-05-29T11:37:03.229Z,20.16
2019-05-29T11:38:03.108Z,20.23
2019-05-29T11:39:56.832Z,20.40
2019-05-29T11:41:20.227Z,20.27
2019-05-29T11:42:48.664Z,19.58
2019-05-29T11:43:48.555Z,19.39
2019-05-29T11:45:41.346Z,19.16
2019-05-29T11:46:41.301Z,18.91
2019-05-29T11:48:34.140Z,18.96
2019-05-29T11:49:33.998Z,19.07
2019-05-29T11:51:26.824Z,19.20
2019-05-29T11:52:41.690Z,19.27
2019-05-29T11:54:19.550Z,19.30
2019-05-29T11:55:19.451Z,19.25
2019-05-29T11:57:12.280Z,19.27
2019-05-29T11:58:28.110Z,19.16
2019-05-29T12:00:14.473Z,19.27
2019-05-29T12:01:05.002Z,19.25
2019-05-29T12:02:57.887Z,19.28
2019-05-29T12:04:19.191Z,19.25
2019-05-29T12:05:51.178Z,19.31
2019-05-29T12:06:51.187Z,19.27
2019-05-29T12:08:43.178Z,19.32
2019-05-29T12:09:43.120Z,19.52
2019-05-29T12:11:35.924Z,19.76
2019-05-29T12:12:35.839Z,19.53
2019-05-29T12:14:28.722Z,19.35
2019-05-29T12:15:28.555Z,19.53
2019-05-29T12:17:21.487Z,19.61
2019-05-29T12:18:24.158Z,19.55
2019-05-29T12:20:27.273Z,19.42
2019-05-29T12:21:14.073Z,19.39
2019-05-29T12:23:22.988Z,19.32
2019-05-29T12:24:06.789Z,19.28
2019-05-29T12:26:16.636Z,19.06
2019-05-29T12:27:00.572Z,18.90
2019-05-29T12:28:53.980Z,18.75
2019-05-29T12:29:52.594Z,18.93
2019-05-29T12:31:45.071Z,18.93
2019-05-29T12:32:44.954Z,18.94
2019-05-29T12:34:50.848Z,19.16
2019-05-29T12:35:37.771Z,19.31
2019-05-29T12:37:30.667Z,19.21
2019-05-29T12:38:30.562Z,19.25
2019-05-29T12:40:23.465Z,19.24
2019-05-29T12:41:23.383Z,19.32
2019-05-29T12:43:26.341Z,19.34
2019-05-29T12:44:16.136Z,19.21
2019-05-29T12:46:08.924Z,19.12
2019-05-29T12:47:08.892Z,19.07
2019-05-29T12:49:01.815Z,18.96
2019-05-29T12:50:02.666Z,19.06
2019-05-29T12:51:55.385Z,19.01
2019-05-29T12:52:55.715Z,19.09
2019-05-29T12:54:47.167Z,18.97
2019-05-29T12:55:47.128Z,18.91
2019-05-29T12:57:39.912Z,18.71
2019-05-29T12:58:39.790Z,18.76
2019-05-29T13:00:32.589Z,18.96
2019-05-29T13:01:32.495Z,18.75
2019-05-29T13:03:25.316Z,18.26
2019-05-29T13:04:25.210Z,18.41
2019-05-29T13:06:18.021Z,18.91
2019-05-29T13:07:17.970Z,19.10
2019-05-29T13:09:10.833Z,19.45
2019-05-29T13:10:10.745Z,19.50
2019-05-29T13:12:04.771Z,19.82
2019-05-29T13:13:08.724Z,19.90
2019-05-29T13:14:56.513Z,19.82
2019-05-29T13:15:56.677Z,19.55
2019-05-29T13:17:48.997Z,19.23
2019-05-29T13:18:48.894Z,19.06
2019-05-29T13:20:41.689Z,18.94
2019-05-29T13:21:41.625Z,18.75
2019-05-29T13:23:44.641Z,18.68
2019-05-29T13:24:34.372Z,18.60
2019-05-29T13:26:27.139Z,18.65
2019-05-29T13:27:27.093Z,18.83
2019-05-29T13:29:19.875Z,18.93
2019-05-29T13:30:19.779Z,18.94
2019-05-29T13:32:12.685Z,19.06
2019-05-29T13:33:12.572Z,19.01
2019-05-29T13:35:06.312Z,19.15
2019-05-29T13:36:06.722Z,19.12
2019-05-29T13:37:58.876Z,19.13
2019-05-29T13:38:58.118Z,19.17
2019-05-29T13:40:50.777Z,19.31
2019-05-29T13:41:50.713Z,19.28
2019-05-29T13:43:43.618Z,19.17
2019-05-29T13:44:43.624Z,19.31
2019-05-29T13:46:36.271Z,19.30
2019-05-29T13:47:36.171Z,19.27
2019-05-29T13:49:29.015Z,19.45
2019-05-29T13:50:28.946Z,19.58
2019-05-29T13:52:21.701Z,19.55
2019-05-29T13:53:21.646Z,19.52
2019-05-29T13:55:14.448Z,19.53
2019-05-29T13:56:14.362Z,19.61
2019-05-29T13:58:07.797Z,19.52
2019-05-29T13:59:08.259Z,19.49
2019-05-29T14:01:00.750Z,19.68
2019-05-29T14:02:00.276Z,19.67
2019-05-29T14:03:52.598Z,19.71
2019-05-29T14:04:52.525Z,19.72
2019-05-29T14:06:45.365Z,19.94
2019-05-29T14:07:45.253Z,19.94
2019-05-29T14:09:38.056Z,20.02
2019-05-29T14:10:38.102Z,19.86
2019-05-29T14:12:30.788Z,19.75
2019-05-29T14:13:30.721Z,19.42
2019-05-29T14:15:23.514Z,18.97
2019-05-29T14:16:23.424Z,18.86
2019-05-29T14:18:16.219Z,18.76
2019-05-29T14:19:16.155Z,18.69
2019-05-29T14:21:09.313Z,18.54
2019-05-29T14:22:09.296Z,18.44
2019-05-29T14:24:07.326Z,18.17
2019-05-29T14:25:01.716Z,18.23
2019-05-29T14:26:54.948Z,18.14
2019-05-29T14:27:54.886Z,18.32
2019-05-29T14:29:47.733Z,18.54
2019-05-29T14:30:47.591Z,18.49
2019-05-29T14:32:40.418Z,18.66
2019-05-29T14:33:40.372Z,18.60
2019-05-29T14:35:33.168Z,18.64
2019-05-29T14:36:34.126Z,18.57
2019-05-29T14:38:26.440Z,18.71
2019-05-29T14:39:26.288Z,18.72
2019-05-29T14:41:18.993Z,18.84
2019-05-29T14:42:18.990Z,19.06
2019-05-29T14:44:12.100Z,19.15
2019-05-29T14:45:12.457Z,19.32
2019-05-29T14:47:04.452Z,19.21
2019-05-29T14:48:04.473Z,19.05
2019-05-29T14:49:57.174Z,19.17
2019-05-29T14:50:57.109Z,19.23
2019-05-29T14:52:50.021Z,19.35
2019-05-29T14:53:49.962Z,19.23
2019-05-29T14:55:42.800Z,19.32
2019-05-29T14:56:42.934Z,19.20
2019-05-29T14:58:35.541Z,19.15
2019-05-29T14:59:35.502Z,19.09
2019-05-29T15:01:28.278Z,19.05
2019-05-29T15:02:28.295Z,19.06
2019-05-29T15:04:20.999Z,18.93
2019-05-29T15:05:21.868Z,19.05
2019-05-29T15:07:14.047Z,18.86
2019-05-29T15:08:14.153Z,18.94
2019-05-29T15:10:17.172Z,18.71
2019-05-29T15:11:06.331Z,18.83
2019-05-29T15:12:59.196Z,18.94
2019-05-29T15:13:59.076Z,18.94
2019-05-29T15:15:51.838Z,19.07
2019-05-29T15:16:51.758Z,18.96
2019-05-29T15:18:44.650Z,19.16
2019-05-29T15:19:44.576Z,19.21
2019-05-29T15:21:37.348Z,19.57
2019-05-29T15:22:37.293Z,19.65
2019-05-29T15:24:30.159Z,19.72
2019-05-29T15:25:30.066Z,19.78
2019-05-29T15:27:22.866Z,19.79
2019-05-29T15:28:23.431Z,19.86
2019-05-29T15:30:20.817Z,19.87
2019-05-29T15:31:16.565Z,19.79
2019-05-29T15:33:08.612Z,19.95
2019-05-29T15:34:08.264Z,19.90
2019-05-29T15:36:01.009Z,19.86
2019-05-29T15:37:00.941Z,19.94
2019-05-29T15:38:53.748Z,20.05
2019-05-29T15:39:53.708Z,20.16
2019-05-29T15:41:46.506Z,20.23
2019-05-29T15:42:46.394Z,20.12
2019-05-29T15:44:39.404Z,19.98
2019-05-29T15:45:39.355Z,19.89
2019-05-29T15:47:32.174Z,19.78
2019-05-29T15:48:32.905Z,19.83
2019-05-29T15:50:26.478Z,19.79
2019-05-29T15:51:25.313Z,19.64
2019-05-29T15:53:17.809Z,19.50
2019-05-29T15:54:17.776Z,19.38
2019-05-29T15:56:22.803Z,19.23
2019-05-29T15:57:11.030Z,19.21
2019-05-29T15:59:03.264Z,19.16
2019-05-29T16:00:03.208Z,19.21
2019-05-29T16:01:56.099Z,19.10
2019-05-29T16:02:55.946Z,19.02
2019-05-29T16:04:48.839Z,19.06
2019-05-29T16:05:48.688Z,19.09
2019-05-29T16:07:41.462Z,18.97
2019-05-29T16:08:41.367Z,18.96
2019-05-29T16:10:34.238Z,18.96
2019-05-29T16:11:34.164Z,18.94
2019-05-29T16:13:26.920Z,18.93
2019-05-29T16:14:26.881Z,18.79
2019-05-29T16:16:19.669Z,18.87
2019-05-29T16:17:19.581Z,18.76
2019-05-29T16:19:12.410Z,18.79
2019-05-29T16:20:12.456Z,18.75
2019-05-29T16:22:05.264Z,18.71
2019-05-29T16:23:05.051Z,18.84
2019-05-29T16:24:57.844Z,18.76
2019-05-29T16:25:57.772Z,18.78
2019-05-29T16:27:50.575Z,18.84
2019-05-29T16:28:50.510Z,18.84
2019-05-29T16:30:43.353Z,18.94
2019-05-29T16:31:43.264Z,18.90
2019-05-29T16:33:36.058Z,18.87
2019-05-29T16:34:36.012Z,18.78
2019-05-29T16:36:28.854Z,18.84
2019-05-29T16:37:28.861Z,18.90
2019-05-29T16:39:22.763Z,19.05
2019-05-29T16:40:21.948Z,19.06
2019-05-29T16:42:14.343Z,19.07
2019-05-29T16:43:14.199Z,19.20
2019-05-29T16:45:06.963Z,19.23
2019-05-29T16:46:06.913Z,19.12
2019-05-29T16:47:59.684Z,19.25
2019-05-29T16:48:59.639Z,19.31
2019-05-29T16:50:52.398Z,19.34
2019-05-29T16:51:52.333Z,19.40
2019-05-29T16:53:45.168Z,19.46
2019-05-29T16:54:45.109Z,19.38
2019-05-29T16:56:37.963Z,19.38
2019-05-29T16:57:37.863Z,19.32
2019-05-29T16:59:30.711Z,19.20
2019-05-29T17:00:30.622Z,19.23
2019-05-29T17:02:23.743Z,19.24
2019-05-29T17:03:23.828Z,19.35
2019-05-29T17:05:16.124Z,19.38
2019-05-29T17:06:16.059Z,19.39
2019-05-29T17:08:09.011Z,19.17
2019-05-29T17:09:08.907Z,19.15
2019-05-29T17:11:04.838Z,19.13
2019-05-29T17:12:01.675Z,19.24
2019-05-29T17:13:54.610Z,19.21
2019-05-29T17:14:54.489Z,19.21
2019-05-29T17:16:47.249Z,19.68
2019-05-29T17:17:47.125Z,19.97
2019-05-29T17:19:40.014Z,20.08
2019-05-29T17:20:39.852Z,19.82
2019-05-29T17:22:32.710Z,19.58
2019-05-29T17:23:32.768Z,19.40
2019-05-29T17:25:28.330Z,19.24
2019-05-29T17:26:25.379Z,19.12
2019-05-29T17:28:22.787Z,18.93
2019-05-29T17:29:18.900Z,18.86
2019-05-29T17:31:10.971Z,18.66
2019-05-29T17:32:10.991Z,18.54
2019-05-29T17:34:04.180Z,18.50
2019-05-29T17:35:03.838Z,18.39
2019-05-29T17:36:56.627Z,18.32
2019-05-29T17:37:56.404Z,18.31
2019-05-29T17:39:50.125Z,18.14
2019-05-29T17:40:49.997Z,18.07
2019-05-29T17:42:42.907Z,18.09
2019-05-29T17:43:42.859Z,18.07
2019-05-29T17:45:35.620Z,18.13
2019-05-29T17:46:35.516Z,18.10
2019-05-29T17:48:28.484Z,18.04
2019-05-29T17:49:34.048Z,18.05
2019-05-29T17:51:21.896Z,18.02
2019-05-29T17:52:21.796Z,17.98
2019-05-29T17:54:13.825Z,18.05
2019-05-29T17:55:13.757Z,17.94
2019-05-29T17:57:06.577Z,18.05
2019-05-29T17:58:06.497Z,18.09
2019-05-29T17:59:59.539Z,18.05
2019-05-29T18:00:59.454Z,18.09
2019-05-29T18:02:52.918Z,18.02
2019-05-29T18:03:52.170Z,17.95
2019-05-29T18:05:45.005Z,18.04
2019-05-29T18:06:44.928Z,17.98
2019-05-29T18:08:37.745Z,17.89
2019-05-29T18:09:37.660Z,17.91
2019-05-29T18:11:30.455Z,17.84
2019-05-29T18:12:30.385Z,17.71
2019-05-29T18:14:23.317Z,17.84
2019-05-29T18:15:23.711Z,17.94
2019-05-29T18:17:17.345Z,18.49
2019-05-29T18:18:15.825Z,18.64
2019-05-29T18:20:08.605Z,18.32
2019-05-29T18:21:08.557Z,18.23
2019-05-29T18:23:01.319Z,17.94
2019-05-29T18:24:01.235Z,17.83
2019-05-29T18:25:54.022Z,17.71
2019-05-29T18:26:54.029Z,17.55
2019-05-29T18:28:46.792Z,17.49
2019-05-29T18:29:46.780Z,17.55
2019-05-29T18:31:39.650Z,17.43
2019-05-29T18:32:39.456Z,17.35
2019-05-29T18:34:32.287Z,17.33